createdAt,value
2022-10-15T03:55:27.932Z,45.10
2022-10-15T03:58:51.901Z,42.90
2022-10-15T04:08:18.043Z,42.20
2022-10-15T04:11:45.433Z,42.90
2022-10-15T04:15:13.594Z,42.70
2022-10-15T04:18:48.477Z,42.00
2022-10-15T04:22:15.298Z,41.30
2022-10-15T04:25:47.195Z,41.50
2022-10-15T04:29:14.086Z,43.60
2022-10-15T04:32:41.376Z,42.80
2022-10-15T04:36:13.107Z,41.80
2022-10-15T04:39:46.040Z,41.90
2022-10-15T04:43:14.211Z,42.80
2022-10-15T04:46:41.074Z,41.40
2022-10-15T04:50:23.665Z,39.60
2022-10-15T04:54:09.185Z,40.40
2022-10-15T04:57:36.868Z,39.50
2022-10-15T05:01:06.143Z,39.40
2022-10-15T05:04:42.888Z,40.50
2022-10-15T05:08:09.514Z,39.60
2022-10-15T05:11:56.072Z,39.10
2022-10-15T05:15:22.742Z,40.10
2022-10-15T05:18:51.869Z,42.40
2022-10-15T05:22:18.810Z,41.60
2022-10-15T05:25:54.253Z,39.90
2022-10-15T05:29:24.180Z,38.80
2022-10-15T05:32:54.398Z,39.70
2022-10-15T05:36:24.446Z,39.70
2022-10-15T05:39:54.066Z,40.40
2022-10-15T05:43:21.097Z,38.60
2022-10-15T05:46:48.876Z,40.10
2022-10-15T05:50:19.725Z,38.80
2022-10-15T05:53:48.427Z,39.60
2022-10-15T05:57:14.955Z,38.20
2022-10-15T06:00:41.821Z,39.10
2022-10-15T06:04:08.681Z,40.40
2022-10-15T06:07:36.958Z,37.50
2022-10-15T06:11:09.416Z,39.50
2022-10-15T06:14:36.647Z,40.20
2022-10-15T06:18:07.006Z,38.60
2022-10-15T06:21:35.017Z,39.70
2022-10-15T06:25:01.618Z,40.80
2022-10-15T06:28:29.334Z,39.50
2022-10-15T06:31:56.626Z,38.40
2022-10-15T06:35:24.990Z,36.90
2022-10-15T06:38:52.025Z,37.90
2022-10-15T06:42:18.742Z,38.30
2022-10-15T06:45:47.565Z,36.80
2022-10-15T06:49:17.250Z,37.20
2022-10-15T06:52:44.506Z,37.80
2022-10-15T06:56:11.731Z,35.40
2022-10-15T06:59:41.381Z,37.10
2022-10-15T07:03:09.364Z,35.70
2022-10-15T07:06:36.884Z,36.30
2022-10-15T07:10:03.577Z,36.00
2022-10-15T07:13:31.755Z,34.80
2022-10-15T07:17:01.057Z,35.50
2022-10-15T07:20:29.820Z,36.40
2022-10-15T07:23:58.418Z,35.10
2022-10-15T07:27:25.020Z,33.60
2022-10-15T07:30:52.859Z,33.60
2022-10-15T07:34:19.539Z,35.80
2022-10-15T07:37:47.684Z,35.90
2022-10-15T07:41:14.245Z,37.50
2022-10-15T07:44:42.144Z,35.20
2022-10-15T07:48:11.137Z,36.90
2022-10-15T07:51:38.041Z,39.10
2022-10-15T07:55:05.721Z,37.40
2022-10-15T07:58:34.709Z,37.50
2022-10-15T08:02:01.585Z,37.70
2022-10-15T08:05:28.522Z,36.90
2022-10-15T08:08:55.253Z,36.50
2022-10-15T08:12:22.014Z,35.60
2022-10-15T08:15:48.803Z,34.80
2022-10-15T08:19:17.778Z,35.80
2022-10-15T08:22:45.228Z,33.90
2022-10-15T08:26:11.952Z,34.20
2022-10-15T08:29:38.980Z,33.60
2022-10-15T08:33:05.686Z,34.30
2022-10-15T08:36:32.522Z,34.90
2022-10-15T08:39:59.554Z,36.00
2022-10-15T08:43:33.185Z,33.10
2022-10-15T08:47:06.250Z,30.70
2022-10-15T08:50:41.633Z,33.00
2022-10-15T08:54:15.098Z,31.90
2022-10-15T08:57:47.861Z,32.00
2022-10-15T09:01:23.302Z,31.20
2022-10-15T09:05:01.071Z,28.70
2022-10-15T09:08:32.248Z,30.10
2022-10-15T09:12:10.316Z,28.40
2022-10-15T09:15:44.924Z,28.80
2022-10-15T09:19:17.765Z,28.40
2022-10-15T09:22:44.640Z,27.40
2022-10-15T09:26:23.702Z,28.70
2022-10-15T09:29:54.107Z,27.40
2022-10-15T09:33:34.956Z,27.00
2022-10-15T09:37:09.123Z,26.80
2022-10-15T09:40:55.682Z,26.20
2022-10-15T09:44:25.690Z,28.30
2022-10-15T09:47:57.890Z,26.70
2022-10-15T09:51:31.073Z,26.30
2022-10-15T09:55:09.791Z,26.20
2022-10-15T09:58:48.603Z,26.00
2022-10-15T10:02:24.707Z,25.20
2022-10-15T10:05:59.975Z,25.00
2022-10-15T10:09:33.840Z,25.70
2022-10-15T10:13:01.618Z,24.60
2022-10-15T10:16:33.007Z,25.60
2022-10-15T10:20:19.214Z,26.20
2022-10-15T10:23:45.839Z,26.30
2022-10-15T10:27:23.328Z,26.90
2022-10-15T10:31:03.594Z,26.50
2022-10-15T10:34:32.604Z,25.80
2022-10-15T10:37:59.665Z,26.40
2022-10-15T10:41:46.818Z,25.20
2022-10-15T10:45:23.476Z,23.90
2022-10-15T10:48:51.594Z,24.30
2022-10-15T10:52:28.353Z,23.90
2022-10-15T10:55:58.554Z,23.50
2022-10-15T10:59:28.146Z,25.20
2022-10-15T11:02:55.866Z,25.70
2022-10-15T11:06:35.896Z,25.60
2022-10-15T11:10:12.099Z,23.90
2022-10-15T11:13:55.215Z,24.30
2022-10-15T11:17:37.074Z,23.40
2022-10-15T11:21:15.375Z,24.40
2022-10-15T11:25:05.925Z,23.90
2022-10-15T11:28:51.321Z,24.50
2022-10-15T11:32:42.166Z,22.10
2022-10-15T11:36:43.847Z,20.60
2022-10-15T11:40:20.881Z,20.80
2022-10-15T11:44:12.943Z,19.70
2022-10-15T11:47:49.877Z,20.60
2022-10-15T11:51:27.815Z,19.80
2022-10-15T11:55:09.325Z,19.70
2022-10-15T11:58:40.396Z,20.60
2022-10-15T12:02:14.452Z,19.80
2022-10-15T12:05:47.237Z,19.70
2022-10-15T12:09:20.769Z,19.10
2022-10-15T12:12:54.032Z,19.00
2022-10-15T12:16:31.045Z,18.50
2022-10-15T12:20:03.254Z,18.40
2022-10-15T12:23:43.113Z,15.80
2022-10-15T12:27:22.676Z,15.70
2022-10-15T12:34:32.028Z,15.90
2022-10-15T12:38:10.161Z,15.90
2022-10-15T12:41:44.232Z,14.00
2022-10-15T12:45:23.211Z,12.60
2022-10-15T12:48:54.104Z,12.40
2022-10-15T12:52:56.347Z,13.60
2022-10-15T12:56:36.367Z,12.40
2022-10-15T13:00:19.339Z,12.60
2022-10-15T13:03:56.249Z,12.10
2022-10-15T13:07:23.030Z,11.40
2022-10-15T13:10:53.020Z,12.10
2022-10-15T13:14:29.963Z,12.50
2022-10-15T13:18:05.953Z,13.70
2022-10-15T13:21:50.485Z,13.70
2022-10-15T13:25:20.100Z,14.90
2022-10-15T13:32:16.597Z,16.20
2022-10-15T13:35:43.582Z,17.40
2022-10-15T13:39:22.774Z,16.50
2022-10-15T13:43:02.906Z,16.50
2022-10-15T13:46:31.562Z,18.60
2022-10-15T13:50:22.679Z,17.70
2022-10-15T13:53:49.534Z,17.90
2022-10-15T13:57:18.603Z,16.70
2022-10-15T14:00:50.613Z,17.40
2022-10-15T14:04:19.921Z,17.40
2022-10-15T14:07:55.210Z,17.30
2022-10-15T14:11:22.624Z,18.40
2022-10-15T14:14:49.669Z,16.60
2022-10-15T14:18:19.389Z,17.70
2022-10-15T14:25:20.917Z,18.40
2022-10-15T14:28:53.206Z,18.80
2022-10-15T14:32:26.008Z,19.80
2022-10-15T14:36:06.561Z,19.40
2022-10-15T14:39:35.198Z,18.20
2022-10-15T14:43:07.493Z,20.10
2022-10-15T14:46:45.562Z,19.50
2022-10-15T14:50:14.015Z,19.70
2022-10-15T14:53:46.361Z,20.60
2022-10-15T14:57:21.628Z,18.70
2022-10-15T15:00:50.761Z,20.20
2022-10-15T15:04:35.373Z,21.20
2022-10-15T15:08:04.460Z,19.60
2022-10-15T15:11:33.463Z,19.80
2022-10-15T15:15:00.605Z,19.20
2022-10-15T15:18:28.348Z,19.30
2022-10-15T15:21:55.143Z,16.90
2022-10-15T15:25:26.026Z,17.20
2022-10-15T15:28:52.882Z,17.10
2022-10-15T15:32:20.581Z,16.90
2022-10-15T15:35:51.636Z,16.60
2022-10-15T15:39:18.688Z,17.30
2022-10-15T15:42:46.235Z,17.90
2022-10-15T15:46:13.655Z,16.70
2022-10-15T15:49:41.994Z,15.70
2022-10-15T15:53:08.670Z,17.20
2022-10-15T15:56:35.483Z,16.90
2022-10-15T16:00:02.196Z,15.30
2022-10-15T16:03:32.466Z,10.90
2022-10-15T16:06:59.006Z,11.10
2022-10-15T16:10:26.955Z,10.20
2022-10-15T16:13:54.198Z,9.80
2022-10-15T16:17:21.576Z,9.90
2022-10-15T16:20:48.830Z,9.80
2022-10-15T16:24:16.465Z,8.20
2022-10-15T16:27:45.660Z,7.50
2022-10-15T16:31:20.573Z,7.00
2022-10-15T16:34:47.759Z,7.60
2022-10-15T16:38:14.577Z,7.20
2022-10-15T16:41:41.209Z,7.70
2022-10-15T16:45:10.344Z,7.60
2022-10-15T16:48:37.245Z,8.60
2022-10-15T16:52:04.717Z,7.50
2022-10-15T16:55:32.524Z,8.20
2022-10-15T16:58:59.935Z,7.80
2022-10-15T17:02:26.879Z,9.10
2022-10-15T17:05:58.971Z,9.40
2022-10-15T17:09:25.978Z,9.60
2022-10-15T17:12:52.956Z,9.90
2022-10-15T17:16:21.323Z,9.90
2022-10-15T17:19:49.294Z,10.40
2022-10-15T17:23:17.404Z,12.50
2022-10-15T17:26:46.733Z,13.50
2022-10-15T17:30:14.185Z,13.70
2022-10-15T17:33:42.580Z,14.80
2022-10-15T17:37:09.747Z,12.80
2022-10-15T17:40:37.276Z,13.00
2022-10-15T17:44:05.321Z,11.70
2022-10-15T17:47:32.794Z,10.90
2022-10-15T17:51:01.990Z,10.70
2022-10-15T17:54:29.049Z,8.40
2022-10-15T17:57:55.697Z,9.10
2022-10-15T18:01:39.139Z,9.50
2022-10-15T18:05:12.491Z,9.20
2022-10-15T18:08:39.195Z,9.50
2022-10-15T18:12:05.814Z,10.30
2022-10-15T18:15:35.270Z,11.30
2022-10-15T18:19:04.866Z,10.60
2022-10-15T18:22:31.391Z,11.20
2022-10-15T18:26:05.965Z,11.40
2022-10-15T18:29:34.867Z,11.50
2022-10-15T18:33:01.657Z,11.40
2022-10-15T18:36:30.445Z,11.20
2022-10-15T18:39:57.067Z,11.70
2022-10-15T18:43:23.684Z,12.60
2022-10-15T18:46:51.213Z,12.40
2022-10-15T18:50:18.397Z,11.60
2022-10-15T18:53:46.585Z,13.10
2022-10-15T18:57:13.088Z,11.90
2022-10-15T19:00:39.684Z,11.20
2022-10-15T19:04:08.641Z,10.40
2022-10-15T19:07:35.414Z,10.60
2022-10-15T19:11:08.610Z,10.40
2022-10-15T19:14:35.433Z,10.90
2022-10-15T19:18:11.186Z,11.90
2022-10-15T19:21:38.557Z,11.60
2022-10-15T19:25:06.573Z,11.80
2022-10-15T19:28:33.686Z,12.30
2022-10-15T19:32:03.345Z,12.50
2022-10-15T19:35:30.131Z,13.80
2022-10-15T19:38:57.065Z,14.10
2022-10-15T19:42:24.482Z,14.90
2022-10-15T19:45:51.821Z,14.90
2022-10-15T19:49:18.392Z,15.40
2022-10-15T19:52:45.632Z,16.50
2022-10-15T19:56:13.598Z,17.10
2022-10-15T19:59:40.158Z,18.10
2022-10-15T20:03:08.299Z,19.10
2022-10-15T20:06:36.358Z,19.40
2022-10-15T20:10:03.715Z,20.40
2022-10-15T20:13:30.646Z,22.50
2022-10-15T20:16:57.661Z,22.50
2022-10-15T20:20:24.331Z,23.30
2022-10-15T20:23:51.056Z,23.70
2022-10-15T20:27:17.684Z,25.60
2022-10-15T20:30:45.170Z,24.20
2022-10-15T20:34:12.069Z,24.30
2022-10-15T20:37:38.745Z,24.70
2022-10-15T20:41:11.491Z,25.30
2022-10-15T20:44:38.637Z,26.20
2022-10-15T20:48:06.370Z,25.90
2022-10-15T20:51:33.225Z,26.50
2022-10-15T20:55:00.079Z,26.30
2022-10-15T20:58:26.888Z,27.40
2022-10-15T21:01:53.529Z,27.40
2022-10-15T21:05:20.253Z,29.80
2022-10-15T21:08:46.695Z,28.90
2022-10-15T21:12:13.786Z,30.00
2022-10-15T21:15:40.464Z,32.20
2022-10-15T21:19:07.134Z,32.00
2022-10-15T21:22:33.681Z,32.20
2022-10-15T21:26:07.109Z,29.40
2022-10-15T21:29:33.857Z,30.00
2022-10-15T21:33:00.841Z,29.60
2022-10-15T21:36:28.935Z,29.80
2022-10-15T21:39:56.794Z,30.20
2022-10-15T21:43:23.400Z,28.40
2022-10-15T21:46:50.426Z,28.70
2022-10-15T21:50:17.316Z,29.10
2022-10-15T21:53:44.450Z,29.20
2022-10-15T21:57:11.808Z,28.50
2022-10-15T22:00:38.617Z,28.40
2022-10-15T22:04:07.905Z,28.50
2022-10-15T22:07:38.358Z,27.10
2022-10-15T22:11:15.565Z,27.50
2022-10-15T22:14:42.443Z,27.80
2022-10-15T22:18:09.163Z,28.00
2022-10-15T22:21:38.878Z,28.70
2022-10-15T22:25:06.471Z,27.30
2022-10-15T22:28:33.055Z,25.40
2022-10-15T22:31:59.884Z,25.70
2022-10-15T22:35:26.462Z,26.10
2022-10-15T22:38:56.813Z,25.50
2022-10-15T22:42:23.798Z,25.50
2022-10-15T22:45:51.208Z,25.20
2022-10-15T22:49:19.623Z,23.70
